Time;durP1;ratioP1;P1;durP2;ratioP2;P2;SDS_P1;SDS_P2;PMS_P1;PMS_P2;Temp;Humidity;BMP_temperature;BMP_pressure;BME280_temperature;BME280_humidity;BME280_pressure;Samples;Min_cycle;Max_cycle;Signal;HPM_P1;HPM_P2
2021/10/16 00:02:01;;;;;;;9.00;6.22;;;;;;;;;;5005091;28;20057;-61
2021/10/16 00:04:46;;;;;;;9.52;5.53;;;;;;;;;;5023796;28;20033;-61
2021/10/16 00:07:32;;;;;;;10.90;6.43;;;;;;;;;;5031883;28;20044;-72
2021/10/16 00:10:18;;;;;;;8.57;5.65;;;;;;;;;;5013292;28;20088;-62
2021/10/16 00:13:04;;;;;;;8.70;5.95;;;;;;;;;;5017717;28;20399;-71
2021/10/16 00:15:49;;;;;;;13.02;5.82;;;;;;;;;;5029810;28;20025;-71
2021/10/16 00:18:35;;;;;;;10.43;6.10;;;;;;;;;;5030326;28;20044;-72
2021/10/16 00:21:21;;;;;;;9.05;5.53;;;;;;;;;;5027023;28;20124;-72
2021/10/16 00:24:06;;;;;;;11.00;6.32;;;;;;;;;;5016089;28;20025;-72
2021/10/16 00:26:52;;;;;;;8.63;5.78;;;;;;;;;;5028187;28;20040;-62
2021/10/16 00:29:37;;;;;;;15.35;6.47;;;;;;;;;;5030093;28;20040;-68
2021/10/16 00:32:23;;;;;;;12.85;6.78;;;;;;;;;;5031683;28;20054;-68
2021/10/16 00:35:08;;;;;;;10.63;6.13;;;;;;;;;;5013462;28;20029;-69
2021/10/16 00:37:54;;;;;;;9.52;6.10;;;;;;;;;;5018335;28;20025;-67
2021/10/16 00:40:39;;;;;;;7.85;5.45;;;;;;;;;;5030966;28;20026;-68
2021/10/16 00:43:25;;;;;;;10.75;6.57;;;;;;;;;;5030719;28;20123;-68
2021/10/16 00:46:11;;;;;;;10.60;5.85;;;;;;;;;;5029535;28;20420;-67
2021/10/16 00:48:57;;;;;;;11.63;5.80;;;;;;;;;;5031116;28;20030;-62
2021/10/16 00:51:43;;;;;;;9.85;5.80;;;;;;;;;;5005173;28;20112;-62
2021/10/16 00:54:29;;;;;;;8.10;5.82;;;;;;;;;;5023547;28;20037;-62
2021/10/16 00:57:15;;;;;;;11.48;5.90;;;;;;;;;;5029141;28;20029;-62
2021/10/16 01:00:01;;;;;;;8.75;5.63;;;;;;;;;;5027924;28;20108;-63
2021/10/16 01:02:47;;;;;;;10.65;5.90;;;;;;;;;;5029266;28;20030;-76
2021/10/16 01:05:34;;;;;;;9.00;5.70;;;;;;;;;;5030965;28;20036;-64
2021/10/16 01:08:19;;;;;;;12.38;6.95;;;;;;;;;;5015093;28;20025;-60
2021/10/16 01:11:05;;;;;;;9.15;5.82;;;;;;;;;;5013722;28;20473;-60
2021/10/16 01:13:52;;;;;;;8.60;5.85;;;;;;;;;;5008125;28;20038;-61
2021/10/16 01:16:39;;;;;;;11.57;6.65;;;;;;;;;;5018945;28;20535;-61
2021/10/16 01:19:27;;;;;;;8.18;5.63;;;;;;;;;;5013808;28;20069;-60
2021/10/16 01:22:12;;;;;;;8.38;5.47;;;;;;;;;;4999002;28;20375;-61
2021/10/16 01:24:59;;;;;;;9.02;5.25;;;;;;;;;;5023640;28;20025;-67
2021/10/16 01:27:45;;;;;;;11.05;6.38;;;;;;;;;;5021987;28;20033;-67
2021/10/16 01:30:30;;;;;;;10.52;5.80;;;;;;;;;;5027600;28;20033;-67
2021/10/16 01:33:16;;;;;;;8.32;5.07;;;;;;;;;;5032368;28;20025;-67
2021/10/16 01:36:03;;;;;;;9.02;6.05;;;;;;;;;;5033437;28;20038;-67
2021/10/16 01:38:48;;;;;;;8.35;5.53;;;;;;;;;;5017737;28;20487;-68
2021/10/16 01:41:34;;;;;;;7.00;4.78;;;;;;;;;;5013220;28;20041;-62
2021/10/16 01:44:19;;;;;;;8.00;5.60;;;;;;;;;;5029697;28;20037;-68
2021/10/16 01:47:05;;;;;;;9.77;6.65;;;;;;;;;;5017003;28;20025;-68
2021/10/16 01:49:54;;;;;;;10.52;6.55;;;;;;;;;;5026517;28;20037;-68
2021/10/16 01:52:39;;;;;;;10.15;5.78;;;;;;;;;;5014333;28;20030;-68
2021/10/16 01:55:25;;;;;;;10.88;7.00;;;;;;;;;;5013646;28;20478;-68
2021/10/16 01:58:12;;;;;;;9.20;6.72;;;;;;;;;;5013911;28;20036;-69
2021/10/16 02:00:57;;;;;;;11.27;6.25;;;;;;;;;;5013201;28;20459;-68
2021/10/16 02:03:43;;;;;;;10.13;6.65;;;;;;;;;;5013362;28;20488;-68
2021/10/16 02:06:28;;;;;;;11.02;7.07;;;;;;;;;;5015464;28;20033;-68
2021/10/16 02:09:14;;;;;;;11.15;7.18;;;;;;;;;;5027972;28;20061;-67
2021/10/16 02:11:59;;;;;;;9.20;6.13;;;;;;;;;;5014154;28;20088;-67
2021/10/16 02:14:45;;;;;;;9.40;5.55;;;;;;;;;;5005824;28;20030;-68
2021/10/16 02:17:30;;;;;;;11.57;6.60;;;;;;;;;;5026419;28;20048;-75
2021/10/16 02:20:16;;;;;;;12.15;6.45;;;;;;;;;;5002606;28;20041;-67
2021/10/16 02:23:01;;;;;;;8.70;5.43;;;;;;;;;;5025491;28;20037;-68
2021/10/16 02:25:47;;;;;;;12.95;8.50;;;;;;;;;;5018668;28;20452;-68
2021/10/16 02:28:33;;;;;;;12.82;6.22;;;;;;;;;;5032526;28;20076;-68
2021/10/16 02:31:18;;;;;;;11.02;7.13;;;;;;;;;;5018280;28;20037;-67
2021/10/16 02:34:04;;;;;;;9.00;6.43;;;;;;;;;;5033114;28;20030;-67
2021/10/16 02:36:49;;;;;;;10.20;6.25;;;;;;;;;;5032096;28;20029;-70
2021/10/16 02:39:35;;;;;;;12.40;7.22;;;;;;;;;;5032355;28;20380;-61
2021/10/16 02:42:20;;;;;;;10.02;7.00;;;;;;;;;;5029137;28;20052;-61
2021/10/16 02:45:06;;;;;;;9.30;6.00;;;;;;;;;;5033256;28;20025;-61
2021/10/16 02:47:52;;;;;;;10.68;7.10;;;;;;;;;;4998818;28;20026;-61
2021/10/16 02:50:37;;;;;;;8.45;5.75;;;;;;;;;;5012957;28;20029;-61
2021/10/16 02:53:23;;;;;;;9.82;6.53;;;;;;;;;;5022597;28;20033;-76
2021/10/16 02:56:08;;;;;;;10.25;6.57;;;;;;;;;;5032221;28;20029;-70
2021/10/16 02:58:54;;;;;;;10.98;7.45;;;;;;;;;;5030805;28;20079;-72
2021/10/16 03:01:40;;;;;;;10.68;6.13;;;;;;;;;;5030488;28;20199;-72
2021/10/16 03:04:25;;;;;;;10.15;6.60;;;;;;;;;;5016153;28;20034;-72
2021/10/16 03:07:11;;;;;;;9.57;6.05;;;;;;;;;;5013788;28;20065;-72
2021/10/16 03:09:57;;;;;;;13.65;8.10;;;;;;;;;;5012935;28;20041;-72
2021/10/16 03:12:42;;;;;;;11.45;6.75;;;;;;;;;;5014344;28;20434;-75
2021/10/16 03:15:28;;;;;;;11.30;6.40;;;;;;;;;;5032303;28;20086;-61
2021/10/16 03:18:13;;;;;;;9.40;6.10;;;;;;;;;;5031137;28;20079;-61
2021/10/16 03:20:59;;;;;;;10.70;6.78;;;;;;;;;;5014414;28;20029;-63
2021/10/16 03:23:45;;;;;;;9.25;6.63;;;;;;;;;;5012301;28;20469;-62
2021/10/16 03:26:31;;;;;;;9.60;5.82;;;;;;;;;;5009816;28;20033;-60
2021/10/16 03:29:16;;;;;;;8.02;5.72;;;;;;;;;;5027301;28;20507;-61
2021/10/16 03:32:02;;;;;;;9.57;6.30;;;;;;;;;;5030903;28;20091;-68
2021/10/16 03:34:47;;;;;;;11.70;6.55;;;;;;;;;;5013436;28;20033;-67
2021/10/16 03:37:33;;;;;;;10.65;6.97;;;;;;;;;;5029087;28;20028;-67
2021/10/16 03:40:19;;;;;;;10.88;7.25;;;;;;;;;;5031843;28;20390;-68
2021/10/16 03:43:04;;;;;;;10.48;6.47;;;;;;;;;;5030962;28;20033;-68
2021/10/16 03:45:50;;;;;;;9.95;6.72;;;;;;;;;;5013265;28;20033;-68
2021/10/16 03:48:35;;;;;;;10.43;7.18;;;;;;;;;;5002244;28;20042;-68
2021/10/16 03:51:21;;;;;;;13.23;8.02;;;;;;;;;;5010756;28;20125;-70
2021/10/16 03:54:07;;;;;;;11.10;6.78;;;;;;;;;;5027016;28;20029;-76
2021/10/16 03:56:52;;;;;;;13.73;7.57;;;;;;;;;;5031509;28;20382;-77
2021/10/16 03:59:41;;;;;;;10.73;7.22;;;;;;;;;;5011216;28;20497;-76
2021/10/16 04:02:27;;;;;;;11.90;8.10;;;;;;;;;;5022025;28;20038;-76
2021/10/16 04:05:14;;;;;;;11.80;7.85;;;;;;;;;;5029179;28;20025;-76
2021/10/16 04:08:00;;;;;;;12.30;8.70;;;;;;;;;;5029667;28;20387;-68
2021/10/16 04:10:45;;;;;;;10.65;7.57;;;;;;;;;;5009746;28;20026;-68
2021/10/16 04:13:31;;;;;;;11.93;8.23;;;;;;;;;;5030777;28;20132;-68
2021/10/16 04:16:16;;;;;;;13.43;9.10;;;;;;;;;;5031310;28;20094;-69
2021/10/16 04:19:02;;;;;;;17.10;10.90;;;;;;;;;;5031014;28;20458;-68
2021/10/16 04:21:48;;;;;;;17.08;10.30;;;;;;;;;;5029815;28;20033;-68
2021/10/16 04:24:33;;;;;;;19.23;10.60;;;;;;;;;;4999171;28;20058;-68
2021/10/16 04:27:22;;;;;;;17.73;9.80;;;;;;;;;;5017507;28;20041;-70
2021/10/16 04:30:07;;;;;;;17.27;10.02;;;;;;;;;;5003703;28;20152;-70
2021/10/16 04:32:53;;;;;;;15.32;9.63;;;;;;;;;;5028620;28;20030;-70
2021/10/16 04:35:41;;;;;;;27.90;12.02;;;;;;;;;;4998116;28;20061;-70
2021/10/16 04:38:26;;;;;;;16.98;10.98;;;;;;;;;;5012275;28;20068;-69
2021/10/16 04:41:12;;;;;;;17.05;10.95;;;;;;;;;;5019387;28;20029;-70
2021/10/16 04:43:58;;;;;;;15.52;10.48;;;;;;;;;;5028849;28;20452;-63
2021/10/16 04:46:43;;;;;;;17.20;10.65;;;;;;;;;;5001878;28;20048;-67
2021/10/16 04:49:29;;;;;;;16.98;10.98;;;;;;;;;;5016497;28;20041;-76
2021/10/16 04:52:15;;;;;;;17.75;11.57;;;;;;;;;;5024677;28;20460;-76
2021/10/16 04:55:00;;;;;;;14.93;9.30;;;;;;;;;;5017489;28;20025;-76
2021/10/16 04:57:46;;;;;;;15.88;10.25;;;;;;;;;;5032046;28;20029;-76
2021/10/16 05:00:31;;;;;;;17.58;11.05;;;;;;;;;;5015202;28;20080;-75
2021/10/16 05:03:17;;;;;;;15.80;9.80;;;;;;;;;;5015792;28;20465;-60
2021/10/16 05:06:03;;;;;;;14.60;10.10;;;;;;;;;;5015639;28;20026;-62
2021/10/16 05:08:48;;;;;;;14.80;10.07;;;;;;;;;;5015529;28;20064;-62
2021/10/16 05:11:34;;;;;;;16.58;10.52;;;;;;;;;;5004628;28;20388;-62
2021/10/16 05:14:19;;;;;;;13.48;10.13;;;;;;;;;;5026309;28;20026;-62
2021/10/16 05:17:05;;;;;;;15.98;11.15;;;;;;;;;;5015031;28;20022;-62
2021/10/16 05:19:50;;;;;;;18.73;11.25;;;;;;;;;;5014115;28;20038;-62
2021/10/16 05:22:36;;;;;;;16.60;11.32;;;;;;;;;;5015384;28;20038;-68
2021/10/16 05:25:22;;;;;;;18.20;12.32;;;;;;;;;;5015249;28;20034;-70
2021/10/16 05:28:07;;;;;;;19.17;12.48;;;;;;;;;;5018966;28;20403;-69
2021/10/16 05:30:53;;;;;;;21.23;12.63;;;;;;;;;;5018345;28;20033;-70
2021/10/16 05:33:38;;;;;;;20.98;12.48;;;;;;;;;;5015161;28;20030;-71
2021/10/16 05:36:24;;;;;;;21.10;12.73;;;;;;;;;;5001733;28;20033;-70
2021/10/16 05:39:10;;;;;;;23.35;14.73;;;;;;;;;;5012610;28;20030;-62
2021/10/16 05:41:55;;;;;;;22.10;14.20;;;;;;;;;;5028626;28;20476;-61
2021/10/16 05:44:41;;;;;;;21.80;14.65;;;;;;;;;;5033625;28;20031;-70
2021/10/16 05:47:27;;;;;;;22.33;14.65;;;;;;;;;;5033970;28;20056;-70
2021/10/16 05:50:12;;;;;;;26.83;15.38;;;;;;;;;;5033678;28;20119;-70
2021/10/16 05:52:58;;;;;;;26.73;16.75;;;;;;;;;;5012535;28;20026;-70
2021/10/16 05:55:43;;;;;;;25.25;15.68;;;;;;;;;;5033009;28;20480;-70
2021/10/16 05:58:29;;;;;;;25.38;15.25;;;;;;;;;;5030210;28;20168;-75
2021/10/16 06:01:14;;;;;;;28.52;17.00;;;;;;;;;;5014762;28;20033;-70
2021/10/16 06:04:00;;;;;;;28.02;16.27;;;;;;;;;;5014732;28;20116;-70
2021/10/16 06:06:46;;;;;;;27.90;16.17;;;;;;;;;;5024221;28;20064;-70
2021/10/16 06:09:31;;;;;;;26.52;17.38;;;;;;;;;;5032666;28;20033;-70
2021/10/16 06:12:17;;;;;;;26.75;16.15;;;;;;;;;;5016207;28;20049;-69
2021/10/16 06:15:03;;;;;;;22.75;15.40;;;;;;;;;;5027024;28;20033;-70
2021/10/16 06:17:49;;;;;;;25.95;15.13;;;;;;;;;;5013508;28;20469;-69
2021/10/16 06:20:35;;;;;;;22.88;14.82;;;;;;;;;;5012414;28;20030;-75
2021/10/16 06:23:20;;;;;;;25.25;14.77;;;;;;;;;;5017592;28;20037;-74
2021/10/16 06:26:06;;;;;;;26.08;15.50;;;;;;;;;;5033412;28;20021;-74
2021/10/16 06:28:52;;;;;;;23.27;13.98;;;;;;;;;;5032739;28;20030;-75
2021/10/16 06:31:37;;;;;;;19.13;13.57;;;;;;;;;;5032228;28;20076;-75
2021/10/16 06:34:23;;;;;;;23.13;15.63;;;;;;;;;;5029677;28;20041;-73
2021/10/16 06:37:08;;;;;;;23.08;13.93;;;;;;;;;;5031673;28;20041;-68
2021/10/16 06:39:54;;;;;;;23.45;14.82;;;;;;;;;;5032918;28;20104;-71
2021/10/16 06:42:39;;;;;;;21.50;14.15;;;;;;;;;;5033223;28;20025;-70
2021/10/16 06:45:26;;;;;;;25.15;15.20;;;;;;;;;;5011794;28;20057;-70
2021/10/16 06:48:11;;;;;;;23.75;13.98;;;;;;;;;;5001252;28;20029;-70
2021/10/16 06:50:57;;;;;;;22.23;14.48;;;;;;;;;;5013711;28;20080;-70
2021/10/16 06:53:42;;;;;;;26.05;14.90;;;;;;;;;;5002410;28;20037;-73
2021/10/16 06:56:28;;;;;;;23.13;15.13;;;;;;;;;;5013019;28;20030;-62
2021/10/16 06:59:14;;;;;;;25.52;16.42;;;;;;;;;;5029352;28;20026;-62
2021/10/16 07:01:59;;;;;;;20.50;13.95;;;;;;;;;;5016639;28;20025;-62
2021/10/16 07:04:45;;;;;;;20.33;14.43;;;;;;;;;;5029031;28;20034;-63
2021/10/16 07:07:30;;;;;;;22.05;14.68;;;;;;;;;;5017549;28;20045;-62
2021/10/16 07:10:16;;;;;;;20.80;13.52;;;;;;;;;;5012927;28;20029;-61
2021/10/16 07:13:03;;;;;;;19.27;13.20;;;;;;;;;;5001509;28;20118;-70
2021/10/16 07:15:49;;;;;;;19.17;12.73;;;;;;;;;;5029382;28;20037;-73
2021/10/16 07:18:34;;;;;;;18.75;12.45;;;;;;;;;;5018885;28;20076;-72
2021/10/16 07:21:20;;;;;;;17.20;12.05;;;;;;;;;;5011666;28;20045;-73
2021/10/16 07:24:06;;;;;;;18.95;12.48;;;;;;;;;;5030620;28;20030;-73
2021/10/16 07:26:53;;;;;;;16.65;11.55;;;;;;;;;;5005160;28;20025;-71
2021/10/16 07:29:39;;;;;;;18.75;13.05;;;;;;;;;;5018749;28;20033;-71
2021/10/16 07:32:24;;;;;;;17.55;11.40;;;;;;;;;;5023205;28;20360;-61
2021/10/16 07:35:10;;;;;;;18.33;11.75;;;;;;;;;;5030644;28;20029;-70
2021/10/16 07:37:55;;;;;;;16.75;11.23;;;;;;;;;;5032170;28;20083;-71
2021/10/16 07:40:41;;;;;;;15.15;10.50;;;;;;;;;;5031869;28;20484;-70
2021/10/16 07:43:27;;;;;;;18.75;11.98;;;;;;;;;;5031579;28;20491;-70
2021/10/16 07:46:13;;;;;;;16.35;10.93;;;;;;;;;;5031244;28;20036;-71
2021/10/16 07:48:58;;;;;;;17.00;10.68;;;;;;;;;;5031518;28;20056;-66
2021/10/16 07:51:44;;;;;;;17.02;10.13;;;;;;;;;;5031730;28;20026;-61
2021/10/16 07:54:29;;;;;;;17.33;10.35;;;;;;;;;;5031251;28;20076;-61
2021/10/16 07:57:15;;;;;;;16.90;9.88;;;;;;;;;;5031360;28;20386;-62
2021/10/16 08:00:01;;;;;;;14.65;10.40;;;;;;;;;;5029990;28;20120;-61
2021/10/16 08:02:46;;;;;;;18.45;10.85;;;;;;;;;;5028318;28;20349;-61
2021/10/16 08:05:32;;;;;;;18.17;10.85;;;;;;;;;;5019952;28;20034;-61
2021/10/16 08:08:17;;;;;;;16.15;11.27;;;;;;;;;;5004017;28;20022;-68
2021/10/16 08:11:03;;;;;;;19.70;12.65;;;;;;;;;;5010734;28;20389;-68
2021/10/16 08:13:48;;;;;;;27.42;13.43;;;;;;;;;;4985379;28;20093;-68
2021/10/16 08:16:34;;;;;;;19.35;11.43;;;;;;;;;;5012573;28;20037;-66
2021/10/16 08:19:20;;;;;;;19.98;11.65;;;;;;;;;;5012414;28;20100;-66
2021/10/16 08:22:08;;;;;;;18.67;12.38;;;;;;;;;;5015095;28;20037;-66
2021/10/16 08:24:53;;;;;;;19.17;12.15;;;;;;;;;;5015106;28;20030;-67
2021/10/16 08:27:40;;;;;;;18.67;12.55;;;;;;;;;;5035048;28;20037;-57
2021/10/16 08:30:25;;;;;;;20.00;12.07;;;;;;;;;;5034123;28;20040;-59
2021/10/16 08:33:11;;;;;;;22.33;12.23;;;;;;;;;;5035199;28;20030;-60
2021/10/16 08:35:56;;;;;;;21.23;12.68;;;;;;;;;;5014268;28;20044;-60
2021/10/16 08:38:42;;;;;;;21.88;13.20;;;;;;;;;;5002269;28;20108;-61
2021/10/16 08:41:28;;;;;;;19.00;13.15;;;;;;;;;;5013535;28;20034;-60
2021/10/16 08:44:14;;;;;;;18.77;13.55;;;;;;;;;;5028856;28;20022;-62
2021/10/16 08:47:00;;;;;;;25.45;14.40;;;;;;;;;;5031824;28;20037;-66
2021/10/16 08:49:46;;;;;;;23.25;14.63;;;;;;;;;;5012780;28;20052;-66
2021/10/16 08:52:32;;;;;;;21.85;14.45;;;;;;;;;;5001523;28;20060;-66
2021/10/16 08:55:18;;;;;;;21.50;13.98;;;;;;;;;;5016497;28;20030;-68
2021/10/16 08:58:03;;;;;;;26.33;14.50;;;;;;;;;;5034558;28;20029;-68
2021/10/16 09:00:53;;;;;;;26.08;17.08;;;;;;;;;;5000718;28;20065;-70
2021/10/16 09:03:52;;;;;;;26.60;17.67;;;;;;;;;;5017076;28;20034;-82
2021/10/16 09:06:40;;;;;;;39.40;21.15;;;;;;;;;;5030351;28;20041;-67
2021/10/16 09:09:27;;;;;;;32.63;21.65;;;;;;;;;;5032020;28;20037;-75
2021/10/16 09:12:12;;;;;;;36.17;22.20;;;;;;;;;;5032093;28;20079;-73
2021/10/16 09:14:58;;;;;;;33.85;19.92;;;;;;;;;;5001122;28;20491;-72
2021/10/16 09:17:59;;;;;;;35.35;20.58;;;;;;;;;;5020524;28;20052;-68
2021/10/16 09:20:44;;;;;;;33.63;20.10;;;;;;;;;;5015253;28;20033;-72
2021/10/16 09:23:30;;;;;;;32.67;19.70;;;;;;;;;;4985881;28;20540;-72
2021/10/16 09:26:15;;;;;;;38.58;20.52;;;;;;;;;;5013092;28;20022;-73
2021/10/16 09:29:02;;;;;;;38.35;22.92;;;;;;;;;;5021112;28;20040;-73
2021/10/16 09:31:54;;;;;;;38.90;22.67;;;;;;;;;;5013530;28;20538;-73
2021/10/16 09:34:41;;;;;;;38.15;21.92;;;;;;;;;;5030170;28;20025;-72
2021/10/16 09:37:26;;;;;;;38.30;23.98;;;;;;;;;;5026983;28;20041;-70
2021/10/16 09:40:12;;;;;;;41.83;23.95;;;;;;;;;;5013548;28;20049;-78
2021/10/16 09:42:58;;;;;;;40.35;23.17;;;;;;;;;;4999260;28;20036;-70
2021/10/16 09:45:44;;;;;;;35.80;22.75;;;;;;;;;;5024549;28;20370;-71
2021/10/16 09:48:33;;;;;;;35.35;21.20;;;;;;;;;;4993888;28;20041;-72
2021/10/16 09:51:20;;;;;;;33.90;22.85;;;;;;;;;;5033542;28;20033;-68
2021/10/16 09:54:14;;;;;;;36.88;23.10;;;;;;;;;;5010791;28;20025;-76
2021/10/16 09:57:00;;;;;;;32.53;22.15;;;;;;;;;;5030049;28;20052;-81
2021/10/16 09:59:45;;;;;;;34.72;21.35;;;;;;;;;;5007148;28;20479;-72
2021/10/16 10:02:32;;;;;;;31.75;20.67;;;;;;;;;;5006523;28;20041;-69
2021/10/16 10:05:20;;;;;;;37.38;21.27;;;;;;;;;;5001020;28;20094;-70
2021/10/16 10:08:05;;;;;;;36.92;23.33;;;;;;;;;;5031221;28;20048;-71
2021/10/16 10:10:51;;;;;;;35.50;23.30;;;;;;;;;;5017649;28;20104;-68
2021/10/16 10:13:37;;;;;;;30.30;20.95;;;;;;;;;;5031601;28;20087;-68
2021/10/16 10:16:23;;;;;;;29.13;19.67;;;;;;;;;;5031711;28;20117;-65
2021/10/16 10:19:09;;;;;;;29.77;21.10;;;;;;;;;;5030832;28;20032;-63
2021/10/16 10:21:55;;;;;;;32.28;21.00;;;;;;;;;;5031533;28;20026;-61
2021/10/16 10:24:45;;;;;;;32.15;20.48;;;;;;;;;;5013353;28;20029;-65
2021/10/16 10:27:42;;;;;;;29.25;21.50;;;;;;;;;;5013374;28;20056;-63
2021/10/16 10:30:36;;;;;;;29.30;20.77;;;;;;;;;;5013678;28;20033;-65
2021/10/16 10:33:22;;;;;;;28.75;21.83;;;;;;;;;;4998401;28;20105;-65
2021/10/16 10:36:17;;;;;;;28.98;20.15;;;;;;;;;;5013870;28;20037;-63
2021/10/16 10:39:23;;;;;;;31.63;22.20;;;;;;;;;;5013502;28;20450;-60
2021/10/16 10:42:11;;;;;;;32.55;20.98;;;;;;;;;;5014395;28;20030;-55
2021/10/16 10:44:59;;;;;;;28.55;20.33;;;;;;;;;;5024408;28;20099;-54
2021/10/16 10:47:54;;;;;;;31.20;21.02;;;;;;;;;;5012299;28;20038;-55
2021/10/16 10:50:42;;;;;;;28.63;20.48;;;;;;;;;;5013077;28;20034;-53
2021/10/16 10:53:32;;;;;;;27.40;20.83;;;;;;;;;;5031560;28;20040;-65
2021/10/16 10:56:21;;;;;;;28.65;21.38;;;;;;;;;;5033221;28;20022;-60
2021/10/16 10:59:09;;;;;;;34.15;21.77;;;;;;;;;;5032865;28;20029;-60
2021/10/16 11:01:57;;;;;;;30.55;22.23;;;;;;;;;;5031734;28;20042;-60
2021/10/16 11:04:49;;;;;;;31.45;21.42;;;;;;;;;;5033681;28;20065;-60
2021/10/16 11:07:40;;;;;;;30.00;22.77;;;;;;;;;;5031342;28;20045;-59
2021/10/16 11:10:26;;;;;;;30.88;22.50;;;;;;;;;;5031422;28;20135;-63
2021/10/16 11:13:18;;;;;;;32.15;21.50;;;;;;;;;;5031501;28;20099;-59
2021/10/16 11:16:05;;;;;;;32.50;23.00;;;;;;;;;;5031532;28;20468;-72
2021/10/16 11:18:57;;;;;;;30.73;23.17;;;;;;;;;;5032065;28;20052;-71
2021/10/16 11:21:43;;;;;;;27.15;21.30;;;;;;;;;;5032196;28;20048;-71
2021/10/16 11:24:30;;;;;;;26.65;21.02;;;;;;;;;;5032092;28;20040;-73
2021/10/16 11:27:22;;;;;;;27.15;20.02;;;;;;;;;;5032391;28;20069;-75
2021/10/16 11:30:14;;;;;;;31.42;22.00;;;;;;;;;;5032468;28;20050;-71
2021/10/16 11:33:01;;;;;;;32.90;22.73;;;;;;;;;;5031474;28;20029;-63
2021/10/16 11:35:47;;;;;;;26.23;18.92;;;;;;;;;;5030862;28;20103;-66
2021/10/16 11:38:35;;;;;;;25.10;20.20;;;;;;;;;;4997366;28;20038;-72
2021/10/16 11:41:20;;;;;;;24.75;20.63;;;;;;;;;;5000846;28;20063;-71
2021/10/16 11:44:07;;;;;;;23.50;19.17;;;;;;;;;;5011496;28;20037;-73
2021/10/16 11:46:59;;;;;;;29.77;22.15;;;;;;;;;;5011982;28;20036;-69
2021/10/16 11:49:45;;;;;;;27.50;19.63;;;;;;;;;;5027453;28;20076;-53
2021/10/16 11:52:30;;;;;;;25.30;19.42;;;;;;;;;;5023132;28;20037;-60
2021/10/16 11:55:18;;;;;;;26.85;18.10;;;;;;;;;;5017218;28;20036;-59
2021/10/16 11:58:11;;;;;;;23.83;18.98;;;;;;;;;;5002790;28;20029;-59
2021/10/16 12:01:01;;;;;;;25.55;18.58;;;;;;;;;;5011315;28;20036;-59
2021/10/16 12:03:46;;;;;;;24.20;18.52;;;;;;;;;;5015697;28;20049;-60
2021/10/16 12:06:32;;;;;;;28.13;19.80;;;;;;;;;;5028581;28;20033;-65
2021/10/16 12:09:18;;;;;;;22.73;18.30;;;;;;;;;;5017378;28;20076;-66
2021/10/16 12:12:03;;;;;;;22.67;17.98;;;;;;;;;;5011765;28;20029;-68
2021/10/16 12:14:49;;;;;;;24.10;18.85;;;;;;;;;;5011860;28;20377;-65
2021/10/16 12:17:41;;;;;;;23.58;18.30;;;;;;;;;;5012336;28;20042;-63
2021/10/16 12:20:27;;;;;;;19.00;15.77;;;;;;;;;;5012083;28;20030;-67
2021/10/16 12:23:13;;;;;;;22.65;15.95;;;;;;;;;;5025294;28;20038;-68
2021/10/16 12:25:58;;;;;;;21.65;15.77;;;;;;;;;;5029920;28;20149;-65
2021/10/16 12:28:44;;;;;;;20.13;13.75;;;;;;;;;;5011587;28;20045;-58
2021/10/16 12:31:41;;;;;;;18.63;14.70;;;;;;;;;;5010091;28;20142;-59
2021/10/16 12:34:30;;;;;;;17.65;14.40;;;;;;;;;;5030492;28;20030;-60
2021/10/16 12:37:16;;;;;;;17.17;13.97;;;;;;;;;;5030176;28;20112;-59
2021/10/16 12:40:05;;;;;;;17.92;13.43;;;;;;;;;;5030276;28;20044;-59
2021/10/16 12:42:50;;;;;;;19.83;13.63;;;;;;;;;;5031225;28;20108;-57
2021/10/16 12:45:40;;;;;;;21.10;14.18;;;;;;;;;;5031436;28;20037;-66
2021/10/16 12:48:34;;;;;;;17.50;11.90;;;;;;;;;;5030200;28;20548;-57
2021/10/16 12:51:36;;;;;;;18.45;13.02;;;;;;;;;;5030832;28;20032;-57
2021/10/16 12:54:32;;;;;;;17.75;13.77;;;;;;;;;;5030286;28;20032;-58
2021/10/16 12:57:17;;;;;;;18.58;13.52;;;;;;;;;;5030464;28;20041;-56
2021/10/16 13:00:03;;;;;;;16.08;11.70;;;;;;;;;;5031327;28;20022;-54
2021/10/16 13:02:49;;;;;;;17.58;13.82;;;;;;;;;;5030929;28;20076;-63
2021/10/16 13:05:35;;;;;;;14.88;12.23;;;;;;;;;;5031601;28;20037;-60
2021/10/16 13:08:20;;;;;;;14.60;11.13;;;;;;;;;;5035056;28;20084;-61
2021/10/16 13:11:06;;;;;;;15.40;11.23;;;;;;;;;;5034872;28;20422;-62
2021/10/16 13:13:51;;;;;;;17.35;11.00;;;;;;;;;;5033812;28;20042;-61
2021/10/16 13:16:37;;;;;;;16.75;12.40;;;;;;;;;;5034127;28;20436;-61
2021/10/16 13:19:23;;;;;;;16.50;12.73;;;;;;;;;;5034499;28;20075;-59
2021/10/16 13:22:09;;;;;;;15.85;10.60;;;;;;;;;;5035423;28;20087;-61
2021/10/16 13:24:54;;;;;;;14.45;11.02;;;;;;;;;;5034132;28;20029;-61
2021/10/16 13:27:40;;;;;;;15.38;10.13;;;;;;;;;;5033858;28;20076;-61
2021/10/16 13:30:26;;;;;;;14.55;11.80;;;;;;;;;;5033389;28;20030;-61
2021/10/16 13:33:12;;;;;;;15.77;9.63;;;;;;;;;;5033531;28;20127;-61
2021/10/16 13:35:57;;;;;;;15.07;10.73;;;;;;;;;;5034850;28;20056;-62
2021/10/16 13:38:43;;;;;;;15.10;10.70;;;;;;;;;;5034091;28;20116;-59
2021/10/16 13:41:28;;;;;;;15.65;9.77;;;;;;;;;;5033696;28;20026;-64
2021/10/16 13:44:16;;;;;;;16.13;8.98;;;;;;;;;;5035730;28;20033;-63
2021/10/16 13:47:02;;;;;;;15.38;9.07;;;;;;;;;;5033191;28;20480;-62
2021/10/16 13:49:47;;;;;;;14.82;10.18;;;;;;;;;;5033789;28;20033;-62
2021/10/16 13:52:33;;;;;;;14.52;9.95;;;;;;;;;;5031545;28;20034;-62
2021/10/16 13:55:18;;;;;;;13.65;8.70;;;;;;;;;;5034543;28;20029;-64
2021/10/16 13:58:04;;;;;;;15.30;9.95;;;;;;;;;;5013885;28;20392;-63
2021/10/16 14:00:50;;;;;;;13.10;10.23;;;;;;;;;;5012656;28;20061;-62
2021/10/16 14:03:35;;;;;;;12.98;9.07;;;;;;;;;;5013086;28;20497;-62
2021/10/16 14:06:21;;;;;;;12.77;9.48;;;;;;;;;;5012400;28;20022;-62
2021/10/16 14:09:07;;;;;;;11.48;8.52;;;;;;;;;;5014278;28;20186;-63
2021/10/16 14:11:52;;;;;;;12.98;8.27;;;;;;;;;;5015492;28;20381;-62
2021/10/16 14:14:38;;;;;;;13.18;10.25;;;;;;;;;;5007138;28;20419;-67
2021/10/16 14:17:23;;;;;;;10.32;8.30;;;;;;;;;;5019384;28;20362;-67
2021/10/16 14:20:10;;;;;;;12.60;8.73;;;;;;;;;;5013572;28;20049;-62
2021/10/16 14:22:55;;;;;;;13.57;9.95;;;;;;;;;;5014247;28;20024;-62
2021/10/16 14:25:41;;;;;;;10.48;8.55;;;;;;;;;;5013594;28;20036;-62
2021/10/16 14:28:29;;;;;;;12.48;9.60;;;;;;;;;;5013300;28;20034;-68
2021/10/16 14:31:15;;;;;;;13.95;11.15;;;;;;;;;;5013135;28;20354;-63
2021/10/16 14:34:01;;;;;;;15.57;10.82;;;;;;;;;;5013149;28;20030;-66
2021/10/16 14:36:47;;;;;;;16.92;11.30;;;;;;;;;;5012868;28;20420;-69
2021/10/16 14:39:33;;;;;;;19.75;11.50;;;;;;;;;;5014626;28;20033;-70
2021/10/16 14:42:18;;;;;;;15.27;11.55;;;;;;;;;;5025162;28;20061;-67
2021/10/16 14:45:04;;;;;;;13.52;10.43;;;;;;;;;;5031103;28;20087;-69
2021/10/16 14:47:50;;;;;;;14.75;11.75;;;;;;;;;;5000440;28;20041;-69
2021/10/16 14:50:35;;;;;;;15.50;10.82;;;;;;;;;;5012992;28;20476;-73
2021/10/16 14:53:21;;;;;;;25.35;11.93;;;;;;;;;;5013774;28;20022;-63
2021/10/16 14:56:06;;;;;;;13.68;10.00;;;;;;;;;;5013455;28;20041;-70
2021/10/16 14:58:52;;;;;;;12.88;9.07;;;;;;;;;;5014076;28;20033;-70
2021/10/16 15:01:37;;;;;;;14.02;9.38;;;;;;;;;;5014080;28;20033;-72
2021/10/16 15:04:23;;;;;;;14.00;9.18;;;;;;;;;;5012799;28;20064;-69
2021/10/16 15:07:09;;;;;;;13.13;8.43;;;;;;;;;;5026439;28;20029;-72
2021/10/16 15:09:54;;;;;;;12.32;9.13;;;;;;;;;;5030892;28;20502;-69
2021/10/16 15:12:40;;;;;;;12.38;9.02;;;;;;;;;;5013375;28;20435;-61
2021/10/16 15:15:28;;;;;;;15.27;9.68;;;;;;;;;;5013340;28;20427;-61
2021/10/16 15:18:13;;;;;;;13.20;9.30;;;;;;;;;;5004318;28;20401;-61
2021/10/16 15:20:59;;;;;;;11.60;8.77;;;;;;;;;;5029330;28;20052;-61
2021/10/16 15:23:45;;;;;;;14.95;9.50;;;;;;;;;;4998532;28;20544;-60
2021/10/16 15:26:31;;;;;;;11.15;8.48;;;;;;;;;;5013090;28;20432;-61
2021/10/16 15:29:17;;;;;;;11.20;8.15;;;;;;;;;;5002428;28;20037;-64
2021/10/16 15:32:03;;;;;;;12.05;8.70;;;;;;;;;;5007939;28;20033;-60
2021/10/16 15:34:48;;;;;;;12.65;8.68;;;;;;;;;;5010238;28;20038;-60
2021/10/16 15:37:34;;;;;;;12.77;9.38;;;;;;;;;;5002847;28;20033;-61
2021/10/16 15:40:19;;;;;;;12.88;8.65;;;;;;;;;;5009082;28;20042;-61
2021/10/16 15:43:05;;;;;;;14.40;8.98;;;;;;;;;;5021468;28;20494;-60
2021/10/16 15:45:50;;;;;;;14.10;9.98;;;;;;;;;;5030886;28;20030;-59
2021/10/16 15:48:36;;;;;;;12.07;9.23;;;;;;;;;;5032715;28;20361;-63
2021/10/16 15:51:25;;;;;;;14.18;9.55;;;;;;;;;;5032409;28;20099;-61
2021/10/16 15:54:10;;;;;;;12.98;9.23;;;;;;;;;;5030331;28;20362;-60
2021/10/16 15:56:56;;;;;;;14.23;9.27;;;;;;;;;;5016350;28;20053;-61
2021/10/16 15:59:41;;;;;;;14.00;9.38;;;;;;;;;;5018139;28;20045;-61
2021/10/16 16:02:27;;;;;;;13.43;10.10;;;;;;;;;;5016389;28;20118;-61
2021/10/16 16:05:12;;;;;;;15.23;9.75;;;;;;;;;;5006342;28;20108;-72
2021/10/16 16:07:58;;;;;;;14.20;9.48;;;;;;;;;;5022090;28;20021;-65
2021/10/16 16:10:44;;;;;;;15.38;9.45;;;;;;;;;;5030464;28;20087;-63
2021/10/16 16:13:29;;;;;;;13.52;9.60;;;;;;;;;;5013262;28;20053;-63
2021/10/16 16:16:16;;;;;;;11.35;8.15;;;;;;;;;;5016931;28;20100;-62